createdAt,value
2023-04-25T00:00:56.324Z,65.92
2023-04-25T00:01:56.292Z,66.08
2023-04-25T00:02:56.393Z,64.47
2023-04-25T00:03:56.871Z,66.49
2023-04-25T00:04:56.570Z,66.63
2023-04-25T00:05:56.417Z,66.57
2023-04-25T00:06:56.378Z,67.21
2023-04-25T00:07:56.349Z,65.39
2023-04-25T00:08:56.389Z,65.80
2023-04-25T00:09:56.420Z,65.75
2023-04-25T00:10:56.454Z,66.47
2023-04-25T00:11:56.456Z,66.35
2023-04-25T00:12:56.488Z,65.32
2023-04-25T00:13:56.533Z,66.04
2023-04-25T00:14:56.519Z,66.58
2023-04-25T00:15:56.627Z,65.49
2023-04-25T00:16:56.561Z,66.33
2023-04-25T00:17:56.650Z,66.08
2023-04-25T00:18:56.606Z,65.49
2023-04-25T00:19:56.619Z,63.66
2023-04-25T00:20:56.694Z,66.02
2023-04-25T00:21:56.672Z,65.33
2023-04-25T00:22:56.693Z,64.61
2023-04-25T00:23:56.767Z,64.39
2023-04-25T00:24:56.762Z,64.31
2023-04-25T00:25:56.782Z,64.55
2023-04-25T00:26:56.848Z,63.96
2023-04-25T00:27:56.822Z,63.94
2023-04-25T00:28:56.831Z,65.32
2023-04-25T00:29:56.856Z,64.46
2023-04-25T00:30:56.922Z,63.39
2023-04-25T00:31:56.961Z,64.31
2023-04-25T00:32:56.955Z,64.03
2023-04-25T00:33:56.950Z,65.82
2023-04-25T00:34:57.004Z,64.06
2023-04-25T00:35:57.009Z,64.20
2023-04-25T00:36:57.044Z,64.22
2023-04-25T00:37:57.073Z,61.34
2023-04-25T00:38:57.074Z,63.46
2023-04-25T00:39:57.111Z,63.75
2023-04-25T00:40:57.160Z,62.96
2023-04-25T00:41:57.150Z,63.86
2023-04-25T00:42:57.170Z,64.44
2023-04-25T00:43:57.197Z,62.42
2023-04-25T00:44:57.236Z,64.21
2023-04-25T00:45:57.224Z,63.59
2023-04-25T00:46:57.288Z,63.51
2023-04-25T00:47:57.310Z,63.62
2023-04-25T00:48:57.304Z,64.92
2023-04-25T00:49:57.332Z,62.66
2023-04-25T00:50:57.354Z,65.97
2023-04-25T00:51:57.372Z,63.88
2023-04-25T00:52:57.435Z,64.18
2023-04-25T00:53:57.444Z,64.10
2023-04-25T00:54:57.448Z,64.71
2023-04-25T00:55:57.597Z,64.18
2023-04-25T00:56:57.569Z,64.31
2023-04-25T00:57:57.593Z,64.67
2023-04-25T00:58:57.613Z,63.18
2023-04-25T00:59:58.087Z,64.64
2023-04-25T01:00:57.678Z,63.58
2023-04-25T01:01:57.667Z,62.48
2023-04-25T01:02:57.818Z,64.49
2023-04-25T01:03:57.840Z,62.53
2023-04-25T01:04:57.758Z,63.88
2023-04-25T01:05:58.074Z,63.33
2023-04-25T01:06:57.846Z,60.87
2023-04-25T01:07:57.862Z,64.07
2023-04-25T01:08:57.877Z,58.95
2023-04-25T01:09:57.918Z,63.85
2023-04-25T01:10:57.975Z,64.33
2023-04-25T01:11:57.994Z,64.80
2023-04-25T01:12:58.012Z,62.41
2023-04-25T01:13:58.035Z,63.21
2023-04-25T01:14:58.085Z,63.06
2023-04-25T01:15:58.079Z,63.79
2023-04-25T01:16:58.290Z,62.67
2023-04-25T01:17:58.171Z,61.87
2023-04-25T01:18:58.195Z,64.65
2023-04-25T01:19:58.223Z,64.03
2023-04-25T01:20:58.271Z,62.95
2023-04-25T01:21:58.269Z,63.46
2023-04-25T01:22:58.296Z,62.79
2023-04-25T01:23:58.334Z,63.12
2023-04-25T01:24:58.383Z,65.70
2023-04-25T01:25:58.412Z,62.10
2023-04-25T01:26:58.415Z,61.96
2023-04-25T01:27:58.440Z,63.25
2023-04-25T01:28:58.468Z,63.76
2023-04-25T01:29:58.483Z,61.82
2023-04-25T01:30:58.562Z,63.51
2023-04-25T01:31:58.584Z,63.83
2023-04-25T01:32:58.652Z,63.65
2023-04-25T01:33:58.635Z,62.78
2023-04-25T01:34:58.671Z,62.93
2023-04-25T01:35:58.700Z,62.35
2023-04-25T01:36:58.716Z,62.73
2023-04-25T01:37:58.729Z,61.35
2023-04-25T01:38:58.765Z,63.15
2023-04-25T01:39:58.817Z,61.40
2023-04-25T01:40:58.830Z,60.38
2023-04-25T01:41:58.862Z,60.71
2023-04-25T01:42:58.923Z,61.65
2023-04-25T01:43:58.911Z,60.98
2023-04-25T01:44:58.964Z,60.92
2023-04-25T01:45:59.033Z,61.15
2023-04-25T01:46:59.022Z,62.12
2023-04-25T01:47:59.076Z,60.63
2023-04-25T01:48:59.079Z,61.59
2023-04-25T01:49:59.119Z,62.29
2023-04-25T01:50:59.126Z,60.59
2023-04-25T01:51:59.160Z,62.23
2023-04-25T01:52:59.194Z,61.21
2023-04-25T01:54:01.015Z,60.74
2023-04-25T01:54:59.248Z,62.02
2023-04-25T01:55:59.267Z,63.16
2023-04-25T01:56:59.303Z,59.58
2023-04-25T01:57:59.330Z,61.20
2023-04-25T01:58:59.359Z,59.87
2023-04-25T01:59:59.391Z,58.94
2023-04-25T02:00:59.510Z,60.02
2023-04-25T02:01:59.573Z,61.73
2023-04-25T02:02:59.597Z,61.33
2023-04-25T02:03:59.724Z,62.45
2023-04-25T02:04:59.536Z,59.11
2023-04-25T02:05:59.567Z,58.68
2023-04-25T02:06:59.634Z,59.78
2023-04-25T02:07:59.639Z,59.89
2023-04-25T02:08:59.663Z,57.55
2023-04-25T02:09:59.684Z,57.74
2023-04-25T02:10:59.724Z,58.13
2023-04-25T02:11:59.772Z,59.98
2023-04-25T02:12:59.787Z,59.22
2023-04-25T02:13:59.834Z,58.72
2023-04-25T02:14:59.863Z,59.62
2023-04-25T02:15:59.931Z,60.13
2023-04-25T02:17:00.043Z,57.63
2023-04-25T02:17:59.938Z,59.83
2023-04-25T02:18:59.981Z,58.80
2023-04-25T02:19:59.982Z,57.29
2023-04-25T02:21:00.013Z,59.62
2023-04-25T02:22:00.049Z,60.65
2023-04-25T02:23:00.082Z,59.16
2023-04-25T02:24:00.128Z,58.56
2023-04-25T02:25:00.588Z,60.28
2023-04-25T02:26:00.194Z,59.66
2023-04-25T02:27:00.203Z,58.46
2023-04-25T02:28:00.252Z,57.63
2023-04-25T02:29:00.290Z,57.53
2023-04-25T02:30:00.326Z,58.56
2023-04-25T02:31:00.356Z,58.19
2023-04-25T02:32:00.384Z,59.60
2023-04-25T02:33:00.479Z,58.80
2023-04-25T02:34:00.434Z,57.03
2023-04-25T02:35:00.502Z,57.17
2023-04-25T02:36:00.526Z,57.69
2023-04-25T02:37:00.543Z,57.34
2023-04-25T02:38:00.575Z,57.91
2023-04-25T02:39:00.610Z,58.53
2023-04-25T02:40:00.637Z,58.11
2023-04-25T02:41:00.686Z,57.24
2023-04-25T02:42:00.687Z,56.36
2023-04-25T02:43:00.744Z,60.04
2023-04-25T02:44:00.733Z,56.25
2023-04-25T02:45:00.826Z,58.50
2023-04-25T02:46:00.815Z,58.45
2023-04-25T02:47:00.913Z,55.51
2023-04-25T02:48:00.879Z,55.35
2023-04-25T02:49:00.897Z,57.73
2023-04-25T02:50:00.938Z,53.59
2023-04-25T02:51:00.973Z,55.81
2023-04-25T02:52:01.050Z,57.47
2023-04-25T02:53:01.042Z,55.51
2023-04-25T02:54:01.084Z,55.67
2023-04-25T02:55:01.145Z,55.66
2023-04-25T02:56:01.150Z,56.81
2023-04-25T02:57:01.180Z,55.02
2023-04-25T02:58:01.251Z,53.56
2023-04-25T02:59:01.280Z,57.83
2023-04-25T03:00:01.324Z,59.45
2023-04-25T03:01:01.374Z,59.39
2023-04-25T03:02:01.360Z,57.79
2023-04-25T03:03:01.583Z,55.45
2023-04-25T03:04:01.522Z,55.60
2023-04-25T03:05:01.487Z,55.85
2023-04-25T03:06:01.513Z,56.66
2023-04-25T03:07:01.563Z,53.45
2023-04-25T03:08:01.582Z,56.95
2023-04-25T03:09:01.610Z,56.30
2023-04-25T03:10:01.666Z,54.82
2023-04-25T03:11:01.724Z,56.70
2023-04-25T03:12:01.754Z,54.51
2023-04-25T03:13:01.786Z,57.54
2023-04-25T03:14:01.820Z,54.81
2023-04-25T03:15:01.864Z,55.08
2023-04-25T03:16:02.092Z,54.95
2023-04-25T03:17:01.967Z,55.15
2023-04-25T03:18:02.055Z,52.90
2023-04-25T03:19:02.014Z,55.65
2023-04-25T03:20:02.057Z,55.52
2023-04-25T03:21:02.084Z,53.82
2023-04-25T03:22:02.162Z,55.37
2023-04-25T03:23:02.155Z,54.27
2023-04-25T03:24:02.198Z,53.69
2023-04-25T03:25:02.271Z,54.25
2023-04-25T03:26:02.295Z,56.41
2023-04-25T03:27:02.351Z,56.50
2023-04-25T03:28:02.358Z,55.87
2023-04-25T03:29:02.405Z,54.15
2023-04-25T03:30:02.451Z,57.12
2023-04-25T03:31:02.484Z,53.60
2023-04-25T03:32:02.579Z,52.95
2023-04-25T03:33:02.623Z,52.44
2023-04-25T03:34:02.639Z,56.50
2023-04-25T03:35:02.685Z,53.52
2023-04-25T03:36:02.680Z,53.30
2023-04-25T03:37:02.872Z,56.58
2023-04-25T03:38:02.787Z,53.58
2023-04-25T03:39:02.832Z,54.80
2023-04-25T03:40:02.885Z,54.27
2023-04-25T03:41:02.909Z,52.45
2023-04-25T03:42:02.999Z,54.49
2023-04-25T03:43:03.000Z,54.29
2023-04-25T03:44:03.025Z,52.87
2023-04-25T03:45:03.119Z,51.01
2023-04-25T03:46:03.149Z,53.78
2023-04-25T03:47:03.157Z,55.08
2023-04-25T03:48:03.263Z,52.79
2023-04-25T03:49:03.273Z,53.51
2023-04-25T03:50:03.276Z,53.26
2023-04-25T03:51:03.323Z,56.22
2023-04-25T03:52:03.357Z,55.39
2023-04-25T03:53:03.391Z,53.83
2023-04-25T03:54:03.434Z,54.08
2023-04-25T03:55:03.485Z,55.07
2023-04-25T03:56:03.498Z,53.26
2023-04-25T03:57:03.560Z,54.12
2023-04-25T03:58:03.606Z,52.92
2023-04-25T03:59:03.610Z,54.15
2023-04-25T04:00:03.693Z,51.82
2023-04-25T04:01:03.721Z,53.29
2023-04-25T04:02:03.801Z,52.77
2023-04-25T04:03:03.943Z,55.62
2023-04-25T04:04:04.162Z,54.39
2023-04-25T04:05:04.260Z,55.10
2023-04-25T04:06:03.938Z,54.97
2023-04-25T04:07:04.017Z,52.52
2023-04-25T04:08:04.032Z,53.22
2023-04-25T04:09:04.073Z,52.62
2023-04-25T04:10:04.131Z,54.84
2023-04-25T04:11:04.195Z,53.89
2023-04-25T04:12:04.241Z,54.30
2023-04-25T04:13:04.240Z,57.94
2023-04-25T04:14:04.292Z,53.70
2023-04-25T04:15:04.444Z,53.66
2023-04-25T04:16:04.501Z,50.56
2023-04-25T04:17:04.410Z,54.98
2023-04-25T04:18:04.508Z,55.17
2023-04-25T04:19:04.494Z,51.04
2023-04-25T04:20:04.574Z,53.89
2023-04-25T04:21:04.596Z,56.33
2023-04-25T04:22:04.631Z,51.76
2023-04-25T04:23:04.670Z,52.52
2023-04-25T04:24:04.737Z,53.05
2023-04-25T04:25:04.760Z,55.48
2023-04-25T04:26:04.845Z,52.08
2023-04-25T04:27:04.854Z,51.86
2023-04-25T04:28:04.874Z,52.75
2023-04-25T04:29:04.916Z,51.23
2023-04-25T04:30:04.957Z,52.46
2023-04-25T04:31:05.146Z,51.65
2023-04-25T04:32:05.049Z,51.02
2023-04-25T04:33:05.116Z,52.80
2023-04-25T04:34:05.121Z,56.87
2023-04-25T04:35:05.162Z,52.31
2023-04-25T04:36:05.172Z,51.89
2023-04-25T04:37:05.229Z,51.80
2023-04-25T04:38:05.247Z,56.00
2023-04-25T04:39:05.269Z,51.94
2023-04-25T04:40:05.339Z,51.79
2023-04-25T04:41:05.370Z,52.29
2023-04-25T04:42:05.390Z,51.96
2023-04-25T04:43:05.408Z,49.80
2023-04-25T04:44:06.511Z,54.28
2023-04-25T04:45:05.507Z,51.33
2023-04-25T04:46:05.580Z,50.61
2023-04-25T04:47:05.671Z,50.94
2023-04-25T04:48:05.643Z,49.61
2023-04-25T04:49:05.616Z,53.58
2023-04-25T04:50:05.679Z,53.03
2023-04-25T04:51:05.692Z,50.58
2023-04-25T04:52:05.722Z,50.92
2023-04-25T04:53:05.765Z,51.93
2023-04-25T04:54:05.824Z,49.78
2023-04-25T04:55:05.880Z,50.73
2023-04-25T04:56:05.882Z,52.38
2023-04-25T04:57:05.920Z,50.37
2023-04-25T04:58:05.957Z,50.06
2023-04-25T04:59:05.964Z,53.28
2023-04-25T05:00:05.983Z,50.78
2023-04-25T05:01:06.049Z,51.06
2023-04-25T05:02:06.061Z,52.22
2023-04-25T05:03:06.194Z,52.89
2023-04-25T05:04:06.343Z,52.05
2023-04-25T05:05:06.210Z,49.75
2023-04-25T05:06:06.197Z,50.94
2023-04-25T05:07:06.226Z,49.21
2023-04-25T05:08:06.295Z,48.05
2023-04-25T05:09:06.307Z,49.13
2023-04-25T05:10:06.349Z,49.50
2023-04-25T05:11:06.335Z,49.63
2023-04-25T05:12:06.760Z,49.88
2023-04-25T05:13:06.416Z,49.82
2023-04-25T05:14:06.452Z,50.39
2023-04-25T05:15:06.515Z,48.87
2023-04-25T05:16:06.600Z,53.88
2023-04-25T05:17:06.539Z,46.89
2023-04-25T05:18:06.730Z,49.73
2023-04-25T05:19:06.637Z,49.36
2023-04-25T05:20:06.715Z,46.69
2023-04-25T05:21:06.690Z,51.75
2023-04-25T05:22:06.789Z,50.04
2023-04-25T05:23:06.785Z,47.64
2023-04-25T05:24:06.824Z,48.85
2023-04-25T05:25:06.878Z,46.33
2023-04-25T05:26:07.153Z,46.12
2023-04-25T05:27:06.954Z,46.54
2023-04-25T05:28:07.014Z,47.78
2023-04-25T05:29:07.024Z,45.35
2023-04-25T05:30:07.115Z,43.74
2023-04-25T05:31:07.055Z,46.99
2023-04-25T05:32:07.203Z,47.75
2023-04-25T05:33:07.177Z,49.15
2023-04-25T05:34:09.151Z,47.99
2023-04-25T05:35:07.279Z,46.26
2023-04-25T05:36:07.208Z,42.55
2023-04-25T05:37:07.196Z,51.13
2023-04-25T05:38:07.719Z,42.61
2023-04-25T05:39:07.223Z,51.40
2023-04-25T05:40:07.196Z,48.15
2023-04-25T05:41:08.204Z,59.74
2023-04-25T05:42:08.299Z,68.20
2023-04-25T05:43:07.702Z,70.11
2023-04-25T05:44:07.305Z,78.91
2023-04-25T05:45:07.361Z,87.82
2023-04-25T05:46:07.455Z,92.12
2023-04-25T05:47:07.474Z,95.81
2023-04-25T05:48:07.770Z,103.50
2023-04-25T05:49:07.596Z,105.85
2023-04-25T05:50:08.207Z,113.23
2023-04-25T05:51:07.717Z,115.97
2023-04-25T05:52:07.744Z,119.03
2023-04-25T05:53:07.804Z,127.69
2023-04-25T05:54:07.794Z,127.40
2023-04-25T05:55:07.902Z,130.97
2023-04-25T05:56:07.872Z,131.00
2023-04-25T05:57:08.004Z,135.13
2023-04-25T05:58:07.999Z,134.49
2023-04-25T05:59:07.986Z,139.07
2023-04-25T06:00:08.032Z,145.14
2023-04-25T06:01:08.118Z,144.03
2023-04-25T06:02:08.080Z,148.21
2023-04-25T06:03:08.425Z,152.13
2023-04-25T06:04:08.358Z,153.57
2023-04-25T06:05:08.486Z,152.78
2023-04-25T06:06:08.341Z,154.68
2023-04-25T06:07:08.127Z,159.36
2023-04-25T06:08:08.184Z,157.45
2023-04-25T06:09:08.176Z,160.91
2023-04-25T06:10:08.224Z,163.57
2023-04-25T06:11:08.232Z,163.53
2023-04-25T06:12:08.212Z,167.49
2023-04-25T06:13:08.684Z,169.18
2023-04-25T06:14:08.234Z,171.70
2023-04-25T06:15:19.992Z,172.06
2023-04-25T06:16:09.287Z,172.40
2023-04-25T06:17:08.242Z,173.40
2023-04-25T06:18:08.261Z,175.74
2023-04-25T06:19:08.233Z,178.36
2023-04-25T06:20:08.250Z,184.96
2023-04-25T06:21:08.215Z,188.35
2023-04-25T06:22:08.206Z,189.45
2023-04-25T06:23:08.257Z,191.04
2023-04-25T06:24:08.202Z,193.10
2023-04-25T06:25:08.197Z,192.22
2023-04-25T06:26:08.223Z,198.43
2023-04-25T06:27:08.202Z,199.71
2023-04-25T06:28:08.161Z,201.11
2023-04-25T06:29:08.164Z,200.31
2023-04-25T06:30:08.270Z,199.19
2023-04-25T06:31:08.767Z,203.88
2023-04-25T06:32:08.174Z,205.29
2023-04-25T06:33:08.274Z,204.47
2023-04-25T06:34:08.117Z,204.70
2023-04-25T06:35:08.109Z,205.09
2023-04-25T06:36:08.121Z,208.07
2023-04-25T06:37:08.112Z,208.83
2023-04-25T06:38:08.189Z,208.77
2023-04-25T06:39:08.114Z,212.52
2023-04-25T06:40:08.133Z,211.55
2023-04-25T06:41:08.098Z,212.87
2023-04-25T06:42:08.072Z,211.88
2023-04-25T06:43:08.676Z,197.44
2023-04-25T06:44:08.094Z,186.99
2023-04-25T06:45:08.043Z,170.02
2023-04-25T06:46:08.087Z,127.71
2023-04-25T06:47:08.241Z,67.63
2023-04-25T06:48:08.079Z,43.62
2023-04-25T06:49:08.046Z,38.93
2023-04-25T06:50:08.029Z,24.36
2023-04-25T06:51:08.026Z,35.72
2023-04-25T06:52:08.031Z,40.05
2023-04-25T06:53:08.053Z,79.49
2023-04-25T06:54:08.131Z,88.40
2023-04-25T06:55:08.161Z,94.82
2023-04-25T06:56:08.758Z,82.56
2023-04-25T06:57:08.285Z,88.32
2023-04-25T06:58:08.315Z,86.01
2023-04-25T06:59:08.351Z,123.10
2023-04-25T07:00:08.405Z,195.83
2023-04-25T07:01:08.500Z,161.86
2023-04-25T07:02:08.649Z,157.97
2023-04-25T07:03:08.727Z,146.32
2023-04-25T07:04:08.733Z,142.92
2023-04-25T07:05:08.606Z,140.54
2023-04-25T07:06:08.636Z,138.11
2023-04-25T07:07:08.663Z,127.70
2023-04-25T07:08:08.725Z,99.93
2023-04-25T07:09:08.744Z,91.50
2023-04-25T07:10:08.773Z,88.24
2023-04-25T07:11:08.797Z,106.28
2023-04-25T07:12:08.861Z,97.82
2023-04-25T07:13:09.208Z,95.49
2023-04-25T07:14:08.904Z,59.66
2023-04-25T07:15:08.984Z,74.21
2023-04-25T07:16:09.236Z,50.15
2023-04-25T07:17:09.012Z,35.52
2023-04-25T07:18:09.224Z,36.08
2023-04-25T07:19:09.083Z,36.08
2023-04-25T07:20:09.123Z,29.21
2023-04-25T07:21:09.164Z,25.67
2023-04-25T07:22:09.221Z,25.38
2023-04-25T07:23:09.256Z,15.14
2023-04-25T07:24:09.291Z,43.62
2023-04-25T07:25:09.353Z,26.99
2023-04-25T07:26:09.375Z,31.86
2023-04-25T07:27:09.437Z,54.65
2023-04-25T07:28:09.444Z,44.46
2023-04-25T07:29:09.465Z,53.29
2023-04-25T07:30:09.506Z,50.09
2023-04-25T07:31:09.546Z,48.23
2023-04-25T07:32:09.587Z,43.67
2023-04-25T07:33:09.804Z,68.29
2023-04-25T07:34:09.656Z,98.37
2023-04-25T07:35:09.652Z,110.70
2023-04-25T07:36:09.830Z,103.97
2023-04-25T07:37:09.697Z,107.62
2023-04-25T07:38:10.210Z,104.51
2023-04-25T07:39:09.763Z,104.45
2023-04-25T07:40:09.806Z,120.12
2023-04-25T07:41:10.277Z,127.63
2023-04-25T07:42:09.888Z,142.85
2023-04-25T07:43:09.876Z,155.19
2023-04-25T07:44:09.924Z,161.31
2023-04-25T07:45:09.913Z,169.17
2023-04-25T07:46:10.056Z,167.51
2023-04-25T07:47:10.068Z,171.57
2023-04-25T07:48:10.217Z,177.35
2023-04-25T07:49:10.020Z,182.51
2023-04-25T07:50:10.064Z,188.69
2023-04-25T07:51:10.111Z,191.30
2023-04-25T07:52:10.109Z,193.92
2023-04-25T07:53:10.241Z,195.15
2023-04-25T07:54:10.205Z,196.82
2023-04-25T07:55:10.737Z,197.26
2023-04-25T07:56:10.200Z,202.12
2023-04-25T07:57:10.219Z,202.13
2023-04-25T07:58:10.725Z,202.43
2023-04-25T07:59:10.242Z,203.61
2023-04-25T08:00:10.269Z,206.21
2023-04-25T08:01:10.302Z,208.04
2023-04-25T08:02:10.352Z,209.19
2023-04-25T08:03:10.506Z,207.80
2023-04-25T08:04:10.476Z,209.02
2023-04-25T08:05:10.452Z,208.80
2023-04-25T08:06:11.081Z,211.24
2023-04-25T08:07:10.314Z,208.71
2023-04-25T08:08:10.733Z,210.02
2023-04-25T08:09:10.467Z,207.60
2023-04-25T08:10:10.357Z,205.25
2023-04-25T08:11:10.900Z,206.52
2023-04-25T08:12:10.364Z,208.55
2023-04-25T08:13:10.396Z,201.46
2023-04-25T08:14:10.368Z,207.27
2023-04-25T08:15:10.383Z,209.16
2023-04-25T08:16:10.743Z,205.71
2023-04-25T08:17:10.413Z,210.40
2023-04-25T08:18:10.468Z,206.00
2023-04-25T08:19:10.373Z,204.85
2023-04-25T08:20:10.369Z,209.44
2023-04-25T08:21:10.397Z,212.79
2023-04-25T08:22:10.338Z,215.09
2023-04-25T08:23:10.362Z,212.02
2023-04-25T08:24:10.366Z,213.18
2023-04-25T08:25:10.380Z,216.49
2023-04-25T08:26:10.350Z,217.76
2023-04-25T08:27:10.504Z,217.24
2023-04-25T08:28:10.364Z,218.72
2023-04-25T08:29:10.735Z,217.39
2023-04-25T08:30:10.389Z,217.22
2023-04-25T08:31:10.377Z,220.09
2023-04-25T08:32:10.373Z,222.33
2023-04-25T08:33:10.406Z,219.99
2023-04-25T08:34:10.379Z,222.52
2023-04-25T08:35:10.493Z,221.64
2023-04-25T08:36:10.374Z,222.47
2023-04-25T08:37:10.386Z,221.07
2023-04-25T08:38:10.405Z,223.56
2023-04-25T08:39:10.849Z,223.48
2023-04-25T08:40:10.449Z,219.81
2023-04-25T08:41:10.390Z,216.50
2023-04-25T08:42:10.546Z,216.04
2023-04-25T08:43:10.413Z,221.04
2023-04-25T08:44:10.752Z,226.74
2023-04-25T08:45:10.483Z,227.90
2023-04-25T08:46:10.480Z,220.73
2023-04-25T08:47:10.497Z,220.35
2023-04-25T08:48:10.529Z,200.38
2023-04-25T08:49:10.629Z,190.74
2023-04-25T08:50:10.486Z,180.32
2023-04-25T08:52:10.440Z,147.50
2023-04-25T08:53:10.561Z,152.39
2023-04-25T08:54:23.405Z,136.23
2023-04-25T08:55:11.510Z,132.76
2023-04-25T08:56:10.466Z,120.78
2023-04-25T08:57:10.439Z,128.78
2023-04-25T08:58:10.721Z,117.90
2023-04-25T08:59:10.789Z,108.33
2023-04-25T09:00:10.400Z,87.95
2023-04-25T09:01:10.428Z,97.60
2023-04-25T09:02:10.475Z,91.16
2023-04-25T09:03:10.564Z,83.70
2023-04-25T09:04:10.881Z,85.79
2023-04-25T09:05:10.442Z,93.65
2023-04-25T09:06:10.419Z,82.67
2023-04-25T09:07:10.357Z,71.34
2023-04-25T09:08:10.394Z,69.84
2023-04-25T09:09:10.549Z,89.58
2023-04-25T09:10:10.335Z,70.57
2023-04-25T09:11:10.429Z,75.04
2023-04-25T09:12:10.340Z,72.50
2023-04-25T09:13:10.307Z,63.31
2023-04-25T09:14:10.315Z,64.41
2023-04-25T09:15:10.315Z,76.91
2023-04-25T09:16:10.314Z,80.81
2023-04-25T09:17:10.408Z,78.35
2023-04-25T09:18:10.349Z,84.90
2023-04-25T09:19:10.325Z,83.03
2023-04-25T09:20:10.349Z,80.93
2023-04-25T09:21:14.278Z,96.26
2023-04-25T09:22:10.346Z,96.69
2023-04-25T09:23:10.321Z,98.93
2023-04-25T09:24:10.302Z,102.41
2023-04-25T09:25:10.287Z,111.45
2023-04-25T09:26:10.295Z,127.02
2023-04-25T09:27:10.278Z,135.32
2023-04-25T09:28:10.297Z,146.96
2023-04-25T09:29:11.270Z,159.82
2023-04-25T09:30:10.269Z,162.39
2023-04-25T09:31:10.268Z,165.29
2023-04-25T09:32:10.819Z,177.05
2023-04-25T09:33:10.438Z,181.75
2023-04-25T09:34:10.241Z,191.53
2023-04-25T09:35:10.242Z,193.97
2023-04-25T09:36:10.214Z,196.53
2023-04-25T09:37:10.263Z,199.03
2023-04-25T09:38:10.273Z,199.92
2023-04-25T09:39:10.229Z,203.14
2023-04-25T09:40:11.161Z,202.82
2023-04-25T09:41:10.557Z,204.87
2023-04-25T09:42:10.321Z,208.27
2023-04-25T09:43:10.372Z,207.65
2023-04-25T09:44:10.455Z,207.46
2023-04-25T09:45:10.452Z,209.60
2023-04-25T09:46:10.582Z,210.09
2023-04-25T09:47:10.822Z,210.29
2023-04-25T09:48:10.746Z,212.43
2023-04-25T09:49:10.782Z,212.56
2023-04-25T09:50:10.756Z,208.32
2023-04-25T09:51:10.823Z,212.74
2023-04-25T09:52:11.310Z,212.20
2023-04-25T09:53:10.918Z,212.95
2023-04-25T09:54:10.966Z,211.80
2023-04-25T09:55:10.959Z,211.87
2023-04-25T09:56:11.033Z,212.58
2023-04-25T09:57:11.316Z,209.20
2023-04-25T09:58:11.062Z,212.14
2023-04-25T09:59:11.230Z,209.75
2023-04-25T10:00:11.041Z,209.86
2023-04-25T10:01:11.108Z,210.36
2023-04-25T10:02:11.133Z,208.57
2023-04-25T10:03:11.127Z,207.13
2023-04-25T10:04:11.349Z,206.57
2023-04-25T10:05:11.162Z,208.29
2023-04-25T10:06:11.105Z,206.77
2023-04-25T10:07:11.264Z,208.68
2023-04-25T10:08:11.027Z,206.82
2023-04-25T10:09:11.022Z,206.40
2023-04-25T10:10:11.013Z,209.25
2023-04-25T10:11:11.056Z,206.95
2023-04-25T10:12:11.081Z,207.72
2023-04-25T10:13:11.061Z,208.37
2023-04-25T10:14:11.174Z,207.06
2023-04-25T10:15:11.093Z,205.03
2023-04-25T10:16:11.180Z,207.69
2023-04-25T10:17:11.236Z,206.96
2023-04-25T10:18:11.348Z,204.67
2023-04-25T10:19:11.814Z,203.67
2023-04-25T10:20:11.426Z,204.00
2023-04-25T10:21:11.447Z,202.78
2023-04-25T10:22:11.794Z,200.59
2023-04-25T10:23:11.580Z,199.19
2023-04-25T10:24:11.610Z,199.16
2023-04-25T10:25:11.695Z,197.59
2023-04-25T10:26:11.723Z,198.39
2023-04-25T10:27:12.287Z,191.61
2023-04-25T10:28:11.830Z,193.01
2023-04-25T10:29:11.893Z,193.91
2023-04-25T10:30:11.959Z,194.65
2023-04-25T10:31:12.218Z,198.18
2023-04-25T10:32:12.162Z,200.96
2023-04-25T10:33:12.100Z,206.11
2023-04-25T10:34:12.164Z,204.04
2023-04-25T10:35:12.188Z,204.97
2023-04-25T10:36:12.233Z,203.98
2023-04-25T10:37:12.428Z,204.53
2023-04-25T10:38:13.268Z,204.94
2023-04-25T10:39:12.833Z,207.69
2023-04-25T10:40:12.431Z,209.44
2023-04-25T10:41:12.436Z,209.90
2023-04-25T10:42:12.482Z,208.39
2023-04-25T10:43:15.054Z,209.86
2023-04-25T10:44:12.716Z,211.11
2023-04-25T10:45:12.798Z,213.10
2023-04-25T10:46:12.786Z,213.01
2023-04-25T10:47:12.807Z,212.65
2023-04-25T10:48:13.000Z,211.18
2023-04-25T10:49:15.681Z,215.46
2023-04-25T10:50:12.897Z,216.05
2023-04-25T10:51:12.912Z,215.34
2023-04-25T10:52:12.836Z,215.23
2023-04-25T10:53:12.827Z,215.47
2023-04-25T10:54:12.862Z,214.61
2023-04-25T10:55:12.858Z,214.72
2023-04-25T10:56:14.389Z,216.28
2023-04-25T10:57:12.799Z,217.27
2023-04-25T10:58:12.830Z,211.09
2023-04-25T10:59:12.815Z,215.57
2023-04-25T11:00:12.844Z,212.51
2023-04-25T11:01:12.845Z,215.65
2023-04-25T11:02:13.443Z,213.75
2023-04-25T11:03:12.901Z,213.85
2023-04-25T11:04:12.978Z,213.44
2023-04-25T11:05:12.790Z,213.47
2023-04-25T11:06:12.753Z,215.17
2023-04-25T11:07:12.752Z,214.68
2023-04-25T11:08:12.763Z,212.59
2023-04-25T11:09:12.749Z,211.81
2023-04-25T11:10:12.782Z,215.15
2023-04-25T11:11:12.728Z,211.98
2023-04-25T11:12:13.294Z,211.18
2023-04-25T11:13:12.874Z,210.92
2023-04-25T11:14:12.928Z,212.68
2023-04-25T11:15:13.276Z,211.26
2023-04-25T11:16:13.636Z,211.42
2023-04-25T11:17:14.063Z,211.56
2023-04-25T11:18:13.114Z,211.49
2023-04-25T11:19:13.027Z,211.82
2023-04-25T11:20:13.086Z,211.82
2023-04-25T11:21:13.014Z,210.76
2023-04-25T11:22:13.011Z,209.44
2023-04-25T11:23:12.995Z,207.11
2023-04-25T11:24:12.996Z,207.88
2023-04-25T11:25:12.990Z,204.20
2023-04-25T11:26:13.041Z,209.24
2023-04-25T11:27:13.290Z,210.00
2023-04-25T11:28:13.126Z,208.33
2023-04-25T11:29:13.164Z,210.18
2023-04-25T11:30:13.207Z,209.86
2023-04-25T11:31:13.222Z,207.94
2023-04-25T11:32:13.377Z,206.62
2023-04-25T11:33:13.317Z,205.26
2023-04-25T11:34:13.249Z,208.15
2023-04-25T11:35:13.269Z,207.88
2023-04-25T11:36:13.272Z,205.62
2023-04-25T11:37:13.308Z,206.32
2023-04-25T11:38:13.298Z,209.05
2023-04-25T11:39:13.306Z,208.61
2023-04-25T11:40:13.266Z,205.69
2023-04-25T11:41:13.269Z,205.22
2023-04-25T11:42:13.892Z,206.32
2023-04-25T11:43:13.273Z,207.45
2023-04-25T11:44:13.286Z,206.30
2023-04-25T11:45:13.304Z,205.04
2023-04-25T11:46:13.366Z,205.23
2023-04-25T11:47:13.343Z,206.64
2023-04-25T11:48:13.398Z,204.02
2023-04-25T11:49:13.375Z,204.47
2023-04-25T11:50:13.429Z,206.35
2023-04-25T11:51:13.477Z,204.66
2023-04-25T11:52:13.575Z,205.56
2023-04-25T11:53:13.622Z,201.83
2023-04-25T11:54:13.673Z,201.16
2023-04-25T11:55:13.838Z,202.57
2023-04-25T11:56:13.790Z,201.86
2023-04-25T11:57:13.888Z,202.35
2023-04-25T11:58:13.909Z,202.01
2023-04-25T11:59:14.191Z,202.75
2023-04-25T12:00:17.501Z,202.65
2023-04-25T12:01:14.026Z,202.70
2023-04-25T12:02:14.108Z,200.95
2023-04-25T12:03:14.122Z,203.40
2023-04-25T12:04:14.174Z,203.16
2023-04-25T12:05:30.416Z,200.81
2023-04-25T12:06:15.268Z,202.84
2023-04-25T12:07:13.983Z,202.79
2023-04-25T12:08:13.967Z,200.65
2023-04-25T12:09:14.177Z,197.19
2023-04-25T12:10:14.342Z,194.24
2023-04-25T12:11:13.943Z,191.23
2023-04-25T12:12:13.968Z,188.07
2023-04-25T12:13:13.966Z,187.12
2023-04-25T12:14:13.928Z,189.49
2023-04-25T12:15:13.991Z,187.56
2023-04-25T12:16:13.974Z,186.50
2023-04-25T12:17:14.064Z,183.10
2023-04-25T12:18:14.119Z,183.64
2023-04-25T12:19:14.240Z,181.28
2023-04-25T12:20:14.242Z,181.35
2023-04-25T12:21:14.354Z,178.71
2023-04-25T12:22:14.825Z,176.29
2023-04-25T12:23:14.366Z,174.98
2023-04-25T12:24:14.407Z,174.18
2023-04-25T12:25:14.492Z,172.83
2023-04-25T12:26:14.521Z,170.75
2023-04-25T12:27:14.597Z,166.11
2023-04-25T12:28:14.646Z,167.49
2023-04-25T12:29:14.833Z,167.21
2023-04-25T12:30:14.789Z,167.32
2023-04-25T12:31:14.891Z,163.95
2023-04-25T12:32:14.889Z,165.17
2023-04-25T12:33:15.010Z,166.32
2023-04-25T12:34:15.005Z,163.47
2023-04-25T12:35:15.100Z,161.91
2023-04-25T12:36:15.168Z,160.01
2023-04-25T12:37:15.213Z,161.79
2023-04-25T12:38:15.255Z,162.65
2023-04-25T12:39:15.292Z,157.82
2023-04-25T12:40:15.397Z,162.11
2023-04-25T12:41:15.430Z,155.04
2023-04-25T12:42:15.489Z,152.61
2023-04-25T12:43:15.550Z,157.56